createdAt,value
2023-05-21T00:00:29.197Z,21.30
2023-05-21T00:01:29.171Z,21.60
2023-05-21T00:02:29.283Z,21.70
2023-05-21T00:03:29.226Z,20.90
2023-05-21T00:04:29.104Z,20.50
2023-05-21T00:05:29.075Z,21.20
2023-05-21T00:06:29.166Z,20.90
2023-05-21T00:07:29.017Z,20.70
2023-05-21T00:08:28.995Z,21.20
2023-05-21T00:09:28.963Z,20.40
2023-05-21T00:10:28.942Z,20.50
2023-05-21T00:11:28.908Z,21.30
2023-05-21T00:12:28.886Z,19.70
2023-05-21T00:13:28.865Z,20.60
2023-05-21T00:14:28.834Z,21.50
2023-05-21T00:15:28.844Z,20.70
2023-05-21T00:16:28.863Z,21.10
2023-05-21T00:17:28.827Z,21.20
2023-05-21T00:18:28.731Z,19.40
2023-05-21T00:19:28.851Z,21.60
2023-05-21T00:20:28.679Z,19.80
2023-05-21T00:21:28.651Z,20.30
2023-05-21T00:22:28.627Z,21.30
2023-05-21T00:23:28.599Z,21.80
2023-05-21T00:24:28.572Z,19.60
2023-05-21T00:25:28.552Z,19.70
2023-05-21T00:26:28.520Z,20.10
2023-05-21T00:27:28.496Z,19.10
2023-05-21T00:28:28.480Z,20.30
2023-05-21T00:29:28.451Z,20.70
2023-05-21T00:30:28.418Z,19.30
2023-05-21T00:31:28.465Z,20.40
2023-05-21T00:32:28.368Z,19.50
2023-05-21T00:33:28.336Z,20.90
2023-05-21T00:34:28.311Z,21.90
2023-05-21T00:35:28.280Z,21.90
2023-05-21T00:36:28.262Z,22.00
2023-05-21T00:37:28.232Z,21.60
2023-05-21T00:38:28.206Z,21.50
2023-05-21T00:39:28.178Z,21.70
2023-05-21T00:40:28.152Z,21.90
2023-05-21T00:41:28.128Z,21.80
2023-05-21T00:42:28.101Z,22.50
2023-05-21T00:43:28.088Z,23.00
2023-05-21T00:44:28.051Z,21.70
2023-05-21T00:45:28.025Z,21.50
2023-05-21T00:46:28.115Z,23.00
2023-05-21T00:47:28.039Z,23.30
2023-05-21T00:48:27.949Z,22.90
2023-05-21T00:49:27.920Z,24.00
2023-05-21T00:50:27.893Z,22.50
2023-05-21T00:51:27.867Z,21.70
2023-05-21T00:52:27.850Z,21.20
2023-05-21T00:53:27.818Z,21.70
2023-05-21T00:54:27.791Z,21.90
2023-05-21T00:55:27.764Z,21.80
2023-05-21T00:56:27.742Z,21.10
2023-05-21T00:57:27.718Z,21.60
2023-05-21T00:58:27.686Z,20.90
2023-05-21T00:59:27.661Z,20.60
2023-05-21T01:00:27.636Z,22.40
2023-05-21T01:01:27.658Z,22.10
2023-05-21T01:02:27.683Z,22.00
2023-05-21T01:03:27.714Z,20.90
2023-05-21T01:04:27.530Z,21.70
2023-05-21T01:05:27.503Z,21.00
2023-05-21T01:06:27.480Z,20.30
2023-05-21T01:07:27.450Z,20.40
2023-05-21T01:08:27.422Z,21.20
2023-05-21T01:09:27.415Z,20.50
2023-05-21T01:10:27.374Z,22.00
2023-05-21T01:11:27.350Z,20.10
2023-05-21T01:12:27.322Z,22.30
2023-05-21T01:13:27.310Z,22.30
2023-05-21T01:14:27.272Z,22.40
2023-05-21T01:15:27.241Z,21.40
2023-05-21T01:16:27.224Z,20.10
2023-05-21T01:17:27.203Z,21.10
2023-05-21T01:18:27.195Z,21.20
2023-05-21T01:19:27.216Z,21.50
2023-05-21T01:20:27.123Z,21.50
2023-05-21T01:21:27.086Z,20.40
2023-05-21T01:22:27.062Z,22.20
2023-05-21T01:23:27.037Z,20.90
2023-05-21T01:24:27.009Z,20.50
2023-05-21T01:25:26.989Z,22.10
2023-05-21T01:26:26.959Z,22.20
2023-05-21T01:27:26.928Z,21.60
2023-05-21T01:28:26.916Z,20.50
2023-05-21T01:29:26.879Z,18.90
2023-05-21T01:30:26.852Z,19.80
2023-05-21T01:31:26.838Z,20.60
2023-05-21T01:32:26.854Z,19.10
2023-05-21T01:33:26.877Z,19.80
2023-05-21T01:34:26.770Z,20.00
2023-05-21T01:35:26.747Z,19.30
2023-05-21T01:36:26.733Z,19.30
2023-05-21T01:37:26.672Z,18.50
2023-05-21T01:38:26.664Z,19.90
2023-05-21T01:39:26.619Z,19.00
2023-05-21T01:40:26.595Z,19.40
2023-05-21T01:41:26.569Z,18.50
2023-05-21T01:42:26.541Z,19.70
2023-05-21T01:43:26.517Z,19.30
2023-05-21T01:44:26.498Z,20.00
2023-05-21T01:45:26.462Z,19.70
2023-05-21T01:46:26.494Z,19.30
2023-05-21T01:47:26.435Z,19.60
2023-05-21T01:48:26.411Z,19.80
2023-05-21T01:49:26.363Z,20.50
2023-05-21T01:50:26.337Z,19.10
2023-05-21T01:51:26.329Z,19.10
2023-05-21T01:52:26.309Z,19.00
2023-05-21T01:53:26.258Z,18.10
2023-05-21T01:54:26.242Z,19.40
2023-05-21T01:55:26.227Z,18.10
2023-05-21T01:56:26.186Z,18.30
2023-05-21T01:57:26.186Z,18.80
2023-05-21T01:58:26.129Z,19.10
2023-05-21T01:59:26.106Z,18.90
2023-05-21T02:00:26.081Z,19.70
2023-05-21T02:01:26.079Z,18.40
2023-05-21T02:02:26.109Z,19.30
2023-05-21T02:03:26.106Z,18.90
2023-05-21T02:04:25.982Z,20.90
2023-05-21T02:05:25.950Z,22.70
2023-05-21T02:06:25.930Z,21.00
2023-05-21T02:07:25.920Z,21.70
2023-05-21T02:08:25.875Z,21.90
2023-05-21T02:09:25.857Z,21.30
2023-05-21T02:10:25.822Z,21.90
2023-05-21T02:11:25.795Z,21.20
2023-05-21T02:12:25.777Z,21.80
2023-05-21T02:13:26.586Z,22.40
2023-05-21T02:14:25.721Z,22.40
2023-05-21T02:15:25.703Z,22.50
2023-05-21T02:16:25.691Z,21.30
2023-05-21T02:17:25.704Z,21.50
2023-05-21T02:18:25.626Z,20.80
2023-05-21T02:19:25.619Z,20.90
2023-05-21T02:20:25.577Z,22.60
2023-05-21T02:21:25.543Z,22.50
2023-05-21T02:22:25.516Z,24.10
2023-05-21T02:23:25.514Z,22.90
2023-05-21T02:24:25.461Z,24.10
2023-05-21T02:25:25.440Z,23.90
2023-05-21T02:26:25.417Z,25.00
2023-05-21T02:27:25.396Z,24.30
2023-05-21T02:28:25.361Z,25.00
2023-05-21T02:29:25.337Z,24.90
2023-05-21T02:30:25.309Z,24.70
2023-05-21T02:31:25.283Z,24.50
2023-05-21T02:32:25.270Z,26.20
2023-05-21T02:33:25.233Z,24.90
2023-05-21T02:34:25.234Z,25.40
2023-05-21T02:35:25.192Z,26.20
2023-05-21T02:36:25.158Z,25.80
2023-05-21T02:37:25.125Z,25.60
2023-05-21T02:38:25.102Z,25.40
2023-05-21T02:39:25.097Z,25.10
2023-05-21T02:40:25.052Z,23.70
2023-05-21T02:41:25.024Z,25.30
2023-05-21T02:42:25.000Z,25.00
2023-05-21T02:43:24.973Z,24.10
2023-05-21T02:44:24.948Z,24.40
2023-05-21T02:45:24.938Z,24.50
2023-05-21T02:46:24.984Z,23.50
2023-05-21T02:47:24.918Z,23.00
2023-05-21T02:48:24.841Z,25.00
2023-05-21T02:49:24.816Z,23.60
2023-05-21T02:50:24.786Z,23.20
2023-05-21T02:51:24.764Z,22.80
2023-05-21T02:52:24.751Z,24.10
2023-05-21T02:53:24.713Z,24.10
2023-05-21T02:54:24.683Z,24.50
2023-05-21T02:55:24.679Z,24.70
2023-05-21T02:56:24.632Z,25.80
2023-05-21T02:57:24.606Z,26.70
2023-05-21T02:58:24.589Z,25.80
2023-05-21T02:59:24.555Z,25.30
2023-05-21T03:00:24.544Z,26.40
2023-05-21T03:01:24.552Z,25.30
2023-05-21T03:02:24.592Z,25.50
2023-05-21T03:03:24.566Z,26.20
2023-05-21T03:04:24.424Z,25.90
2023-05-21T03:05:24.430Z,26.40
2023-05-21T03:06:24.372Z,26.20
2023-05-21T03:07:24.366Z,27.70
2023-05-21T03:08:24.316Z,27.50
2023-05-21T03:09:24.290Z,27.40
2023-05-21T03:10:24.270Z,26.70
2023-05-21T03:11:24.267Z,27.30
2023-05-21T03:12:24.226Z,26.70
2023-05-21T03:13:24.244Z,27.50
2023-05-21T03:14:24.161Z,26.00
2023-05-21T03:15:24.405Z,26.70
2023-05-21T03:16:24.125Z,26.60
2023-05-21T03:17:24.094Z,27.80
2023-05-21T03:18:24.071Z,27.10
2023-05-21T03:19:24.055Z,26.40
2023-05-21T03:20:24.010Z,26.70
2023-05-21T03:21:23.976Z,26.20
2023-05-21T03:22:23.959Z,26.50
2023-05-21T03:23:23.928Z,27.00
2023-05-21T03:24:23.910Z,26.90
2023-05-21T03:25:23.874Z,26.70
2023-05-21T03:26:23.849Z,26.10
2023-05-21T03:27:23.866Z,25.20
2023-05-21T03:28:23.796Z,25.40
2023-05-21T03:29:23.774Z,24.80
2023-05-21T03:30:23.758Z,25.90
2023-05-21T03:31:23.731Z,26.30
2023-05-21T03:32:23.847Z,26.90
2023-05-21T03:33:23.670Z,26.40
2023-05-21T03:34:23.636Z,26.90
2023-05-21T03:35:23.613Z,28.20
2023-05-21T03:36:23.589Z,26.80
2023-05-21T03:37:23.570Z,29.30
2023-05-21T03:38:23.539Z,29.40
2023-05-21T03:39:23.506Z,31.10
2023-05-21T03:40:23.483Z,27.30
2023-05-21T03:41:23.456Z,28.20
2023-05-21T03:42:23.430Z,28.90
2023-05-21T03:43:23.436Z,27.50
2023-05-21T03:44:23.378Z,26.00
2023-05-21T03:45:23.368Z,25.90
2023-05-21T03:46:23.354Z,27.30
2023-05-21T03:47:23.315Z,26.40
2023-05-21T03:48:23.274Z,27.70
2023-05-21T03:49:23.245Z,27.10
2023-05-21T03:50:23.224Z,27.30
2023-05-21T03:51:23.193Z,27.20
2023-05-21T03:52:23.175Z,27.70
2023-05-21T03:53:23.137Z,29.50
2023-05-21T03:54:23.156Z,26.90
2023-05-21T03:55:23.092Z,25.80
2023-05-21T03:56:23.069Z,25.30
2023-05-21T03:57:23.035Z,27.20
2023-05-21T03:58:23.030Z,26.30
2023-05-21T03:59:23.107Z,27.60
2023-05-21T04:00:22.956Z,27.40
2023-05-21T04:01:22.927Z,27.70
2023-05-21T04:02:22.983Z,27.50
2023-05-21T04:03:22.990Z,25.40
2023-05-21T04:04:22.985Z,23.20
2023-05-21T04:05:22.826Z,21.90
2023-05-21T04:06:22.852Z,23.10
2023-05-21T04:07:22.768Z,23.70
2023-05-21T04:08:22.746Z,24.30
2023-05-21T04:09:22.732Z,25.90
2023-05-21T04:10:22.696Z,26.20
2023-05-21T04:11:22.698Z,27.50
2023-05-21T04:12:22.634Z,25.80
2023-05-21T04:13:22.606Z,27.10
2023-05-21T04:14:22.585Z,27.10
2023-05-21T04:15:22.578Z,28.60
2023-05-21T04:16:22.587Z,30.00
2023-05-21T04:17:22.701Z,29.60
2023-05-21T04:18:22.476Z,28.10
2023-05-21T04:19:22.490Z,28.10
2023-05-21T04:20:22.421Z,27.10
2023-05-21T04:21:22.399Z,28.20
2023-05-21T04:22:22.366Z,29.60
2023-05-21T04:23:22.342Z,29.40
2023-05-21T04:24:22.311Z,28.00
2023-05-21T04:25:22.301Z,28.10
2023-05-21T04:26:22.258Z,29.00
2023-05-21T04:27:22.234Z,27.00
2023-05-21T04:28:22.207Z,27.00
2023-05-21T04:29:22.182Z,26.80
2023-05-21T04:30:22.153Z,26.00
2023-05-21T04:31:22.230Z,24.10
2023-05-21T04:32:22.132Z,23.00
2023-05-21T04:33:22.076Z,22.60
2023-05-21T04:34:22.046Z,22.30
2023-05-21T04:35:22.028Z,23.10
2023-05-21T04:36:21.998Z,22.40
2023-05-21T04:37:21.968Z,22.20
2023-05-21T04:38:21.960Z,23.30
2023-05-21T04:39:21.921Z,22.10
2023-05-21T04:40:21.890Z,23.00
2023-05-21T04:41:21.862Z,23.50
2023-05-21T04:42:21.846Z,22.90
2023-05-21T04:43:21.812Z,21.80
2023-05-21T04:44:21.781Z,22.10
2023-05-21T04:45:21.759Z,21.70
2023-05-21T04:46:21.766Z,21.10
2023-05-21T04:47:21.756Z,20.60
2023-05-21T04:48:21.677Z,22.30
2023-05-21T04:49:21.653Z,21.70
2023-05-21T04:50:21.620Z,23.00
2023-05-21T04:51:21.602Z,23.00
2023-05-21T04:52:21.570Z,22.70
2023-05-21T04:53:21.557Z,21.70
2023-05-21T04:54:21.541Z,21.70
2023-05-21T04:55:21.493Z,22.00
2023-05-21T04:56:21.467Z,20.20
2023-05-21T04:57:21.444Z,21.60
2023-05-21T04:58:21.413Z,22.00
2023-05-21T04:59:21.407Z,21.50
2023-05-21T05:00:21.363Z,21.50
2023-05-21T05:01:21.397Z,21.70
2023-05-21T05:02:21.361Z,21.40
2023-05-21T05:03:21.382Z,21.40
2023-05-21T05:04:21.259Z,21.80
2023-05-21T05:05:21.237Z,22.00
2023-05-21T05:06:21.205Z,22.50
2023-05-21T05:07:21.200Z,22.90
2023-05-21T05:08:21.152Z,22.30
2023-05-21T05:09:21.128Z,21.30
2023-05-21T05:10:21.097Z,21.70
2023-05-21T05:11:21.075Z,23.20
2023-05-21T05:12:21.047Z,22.10
2023-05-21T05:13:21.028Z,22.40
2023-05-21T05:14:20.995Z,23.00
2023-05-21T05:15:20.989Z,21.90
2023-05-21T05:16:20.983Z,22.50
2023-05-21T05:17:20.918Z,21.70
2023-05-21T05:18:20.913Z,23.30
2023-05-21T05:19:20.941Z,23.80
2023-05-21T05:20:20.842Z,23.60
2023-05-21T05:21:20.813Z,22.90
2023-05-21T05:22:20.798Z,24.20
2023-05-21T05:23:20.761Z,22.60
2023-05-21T05:24:20.737Z,23.00
2023-05-21T05:25:20.711Z,23.60
2023-05-21T05:26:20.683Z,23.90
2023-05-21T05:27:20.661Z,22.90
2023-05-21T05:28:20.648Z,22.90
2023-05-21T05:29:20.612Z,24.30
2023-05-21T05:30:20.597Z,22.80
2023-05-21T05:31:20.578Z,22.70
2023-05-21T05:32:20.560Z,23.50
2023-05-21T05:33:20.505Z,23.00
2023-05-21T05:34:20.480Z,22.50
2023-05-21T05:35:20.476Z,22.60
2023-05-21T05:36:20.423Z,22.90
2023-05-21T05:37:20.405Z,23.30
2023-05-21T05:38:20.374Z,23.60
2023-05-21T05:39:20.353Z,22.70
2023-05-21T05:40:20.332Z,22.60
2023-05-21T05:41:20.303Z,23.40
2023-05-21T05:42:20.282Z,23.00
2023-05-21T05:43:20.245Z,22.80
2023-05-21T05:44:20.218Z,25.00
2023-05-21T05:45:20.192Z,23.70
2023-05-21T05:46:20.204Z,24.40
2023-05-21T05:47:20.146Z,25.20
2023-05-21T05:48:20.122Z,24.00
2023-05-21T05:49:20.087Z,24.50
2023-05-21T05:50:20.062Z,24.40
2023-05-21T05:51:20.059Z,23.80
2023-05-21T05:52:20.011Z,24.20
2023-05-21T05:53:19.989Z,24.50
2023-05-21T05:54:19.960Z,24.40
2023-05-21T05:55:19.966Z,24.40
2023-05-21T05:56:19.913Z,23.10
2023-05-21T05:57:19.885Z,22.50
2023-05-21T05:58:19.858Z,23.40
2023-05-21T05:59:19.842Z,23.70
2023-05-21T06:00:19.821Z,25.50
2023-05-21T06:01:19.781Z,24.60
2023-05-21T06:02:19.847Z,24.50
2023-05-21T06:03:19.894Z,24.40
2023-05-21T06:04:19.699Z,25.00
2023-05-21T06:05:19.688Z,25.70
2023-05-21T06:06:19.738Z,25.00
2023-05-21T06:07:19.666Z,24.30
2023-05-21T06:08:19.599Z,24.90
2023-05-21T06:09:19.576Z,24.10
2023-05-21T06:10:19.549Z,24.30
2023-05-21T06:11:19.521Z,24.50
2023-05-21T06:12:19.504Z,24.70
2023-05-21T06:13:19.479Z,24.20
2023-05-21T06:14:19.441Z,25.10
2023-05-21T06:15:19.415Z,23.90
2023-05-21T06:16:19.430Z,24.40
2023-05-21T06:17:19.365Z,24.40
2023-05-21T06:18:19.338Z,23.10
2023-05-21T06:19:19.356Z,24.20
2023-05-21T06:20:19.284Z,23.20
2023-05-21T06:21:19.263Z,22.20
2023-05-21T06:22:19.236Z,21.90
2023-05-21T06:23:19.264Z,21.30
2023-05-21T06:24:19.185Z,22.20
2023-05-21T06:25:19.160Z,22.60
2023-05-21T06:26:19.131Z,22.20
2023-05-21T06:27:19.120Z,23.10
2023-05-21T06:28:19.087Z,21.90
2023-05-21T06:29:19.088Z,21.90
2023-05-21T06:30:19.030Z,20.20
2023-05-21T06:31:19.021Z,19.80
2023-05-21T06:32:19.005Z,21.30
2023-05-21T06:33:19.166Z,20.40
2023-05-21T06:34:18.929Z,19.90
2023-05-21T06:35:18.906Z,21.20
2023-05-21T06:36:18.880Z,21.00
2023-05-21T06:37:18.865Z,18.10
2023-05-21T06:38:18.828Z,18.90
2023-05-21T06:39:18.823Z,19.00
2023-05-21T06:40:18.778Z,18.70
2023-05-21T06:41:18.759Z,19.60
2023-05-21T06:42:18.733Z,17.60
2023-05-21T06:43:18.703Z,19.20
2023-05-21T06:44:18.675Z,19.10
2023-05-21T06:45:18.652Z,18.90
2023-05-21T06:46:18.739Z,19.00
2023-05-21T06:47:18.610Z,19.40
2023-05-21T06:48:18.582Z,18.50
2023-05-21T06:49:18.567Z,19.40
2023-05-21T06:50:18.524Z,19.80
2023-05-21T06:51:18.512Z,19.30
2023-05-21T06:52:18.471Z,18.20
2023-05-21T06:53:18.462Z,18.50
2023-05-21T06:54:18.424Z,18.60
2023-05-21T06:55:18.429Z,18.70
2023-05-21T06:56:18.381Z,17.90
2023-05-21T06:57:18.364Z,18.60
2023-05-21T06:58:18.327Z,17.80
2023-05-21T06:59:18.299Z,18.80
2023-05-21T07:00:18.280Z,17.60
2023-05-21T07:01:18.375Z,17.80
2023-05-21T07:02:18.275Z,18.80
2023-05-21T07:03:18.288Z,18.10
2023-05-21T07:04:18.176Z,18.60
2023-05-21T07:05:18.239Z,18.70
2023-05-21T07:06:18.122Z,20.40
2023-05-21T07:07:18.096Z,18.90
2023-05-21T07:08:18.075Z,18.60
2023-05-21T07:09:18.058Z,19.70
2023-05-21T07:10:18.023Z,19.40
2023-05-21T07:11:18.039Z,18.80
2023-05-21T07:12:17.968Z,18.60
2023-05-21T07:13:17.948Z,19.10
2023-05-21T07:14:17.921Z,20.00
2023-05-21T07:15:17.902Z,20.00
2023-05-21T07:16:18.155Z,18.30
2023-05-21T07:17:17.850Z,19.50
2023-05-21T07:18:17.831Z,19.00
2023-05-21T07:19:17.836Z,18.80
2023-05-21T07:20:17.773Z,19.20
2023-05-21T07:21:17.750Z,19.50
2023-05-21T07:22:17.734Z,18.60
2023-05-21T07:23:17.700Z,19.10
2023-05-21T07:24:17.674Z,18.80
2023-05-21T07:25:17.648Z,19.70
2023-05-21T07:26:17.630Z,17.80
2023-05-21T07:27:25.379Z,19.80
2023-05-21T07:28:17.579Z,19.50
2023-05-21T07:29:17.550Z,19.00
2023-05-21T07:30:17.527Z,20.10
2023-05-21T07:31:17.521Z,18.80
2023-05-21T07:32:17.472Z,18.90
2023-05-21T07:33:17.456Z,19.20
2023-05-21T07:34:17.436Z,19.00
2023-05-21T07:35:17.402Z,18.80
2023-05-21T07:36:17.374Z,19.20
2023-05-21T07:37:17.350Z,19.40
2023-05-21T07:38:17.324Z,18.90
2023-05-21T07:39:17.302Z,19.30
2023-05-21T07:40:17.277Z,18.40
2023-05-21T07:41:18.684Z,20.10
2023-05-21T07:42:17.227Z,19.20
2023-05-21T07:43:17.230Z,18.60
2023-05-21T07:44:17.179Z,18.20
2023-05-21T07:45:17.157Z,18.00
2023-05-21T07:46:17.157Z,18.50
2023-05-21T07:47:17.105Z,19.20
2023-05-21T07:48:17.081Z,19.00
2023-05-21T07:49:17.211Z,18.30
2023-05-21T07:50:17.031Z,19.00
2023-05-21T07:51:17.004Z,18.70
2023-05-21T07:52:16.989Z,19.30
2023-05-21T07:53:16.958Z,17.70
2023-05-21T07:54:16.948Z,17.50
2023-05-21T07:55:16.932Z,18.90
2023-05-21T07:56:16.897Z,18.00
2023-05-21T07:57:16.866Z,19.30
2023-05-21T07:58:16.848Z,17.20
2023-05-21T07:59:16.912Z,17.70
2023-05-21T08:00:16.798Z,18.00
2023-05-21T08:01:16.763Z,18.40
2023-05-21T08:02:16.756Z,17.50
2023-05-21T08:03:16.750Z,17.80
2023-05-21T08:04:16.844Z,17.70
2023-05-21T08:05:16.814Z,17.90
2023-05-21T08:06:16.639Z,17.90
2023-05-21T08:07:16.615Z,16.70
2023-05-21T08:08:16.590Z,17.30
2023-05-21T08:09:16.568Z,16.90
2023-05-21T08:10:19.155Z,17.90
2023-05-21T08:11:16.515Z,17.20
2023-05-21T08:12:16.499Z,16.30
2023-05-21T08:13:16.479Z,17.30
2023-05-21T08:14:16.453Z,17.20
2023-05-21T08:15:16.446Z,16.10
2023-05-21T08:16:16.408Z,16.20
2023-05-21T08:17:16.364Z,16.40
2023-05-21T08:18:16.344Z,16.80
2023-05-21T08:19:16.389Z,16.00
2023-05-21T08:20:16.306Z,16.20
2023-05-21T08:21:16.269Z,16.50
2023-05-21T08:22:16.248Z,16.60
2023-05-21T08:23:16.233Z,15.40
2023-05-21T08:24:16.207Z,16.00
2023-05-21T08:25:16.186Z,16.20
2023-05-21T08:26:16.150Z,15.70
2023-05-21T08:27:16.122Z,16.10
2023-05-21T08:28:16.111Z,16.10
2023-05-21T08:29:16.075Z,15.70
2023-05-21T08:30:16.052Z,16.10
2023-05-21T08:31:16.090Z,15.70
2023-05-21T08:32:16.301Z,15.40
2023-05-21T08:33:15.983Z,14.70
2023-05-21T08:34:15.954Z,14.60
2023-05-21T08:35:15.933Z,15.70
2023-05-21T08:36:15.906Z,15.20
2023-05-21T08:37:15.888Z,15.20
2023-05-21T08:38:15.857Z,15.60
2023-05-21T08:39:15.845Z,14.80
2023-05-21T08:40:15.815Z,15.20
2023-05-21T08:41:15.785Z,14.10
2023-05-21T08:42:22.541Z,14.30
2023-05-21T08:43:15.735Z,14.90
2023-05-21T08:44:15.714Z,14.50
2023-05-21T08:45:15.690Z,14.00
2023-05-21T08:46:15.678Z,14.60
2023-05-21T08:47:15.672Z,15.00
2023-05-21T08:48:15.625Z,15.30
2023-05-21T08:49:15.594Z,15.10
2023-05-21T08:50:15.578Z,15.20
2023-05-21T08:51:15.543Z,16.00
2023-05-21T08:52:15.538Z,16.00
2023-05-21T08:53:26.687Z,15.20
2023-05-21T08:54:15.474Z,15.00
2023-05-21T08:55:15.493Z,14.50
2023-05-21T08:56:15.448Z,14.70
2023-05-21T08:57:15.413Z,15.40
2023-05-21T08:58:15.393Z,15.90
2023-05-21T08:59:15.368Z,15.80
2023-05-21T09:00:15.334Z,15.10
2023-05-21T09:01:15.332Z,15.40
2023-05-21T09:02:15.298Z,15.40
2023-05-21T09:03:15.342Z,14.80
2023-05-21T09:04:20.708Z,14.90
2023-05-21T09:05:15.236Z,14.60
2023-05-21T09:06:15.195Z,15.30
2023-05-21T09:07:15.171Z,15.30
2023-05-21T09:08:15.148Z,14.70
2023-05-21T09:09:15.123Z,15.30
2023-05-21T09:10:15.110Z,14.70
2023-05-21T09:11:15.083Z,15.00
2023-05-21T09:12:15.056Z,14.90
2023-05-21T09:13:15.032Z,14.70
2023-05-21T09:14:15.009Z,14.40
2023-05-21T09:15:14.987Z,13.60
2023-05-21T09:16:14.996Z,13.80
2023-05-21T09:17:14.954Z,14.40
2023-05-21T09:18:14.950Z,14.80
2023-05-21T09:19:14.955Z,13.90
2023-05-21T09:20:15.013Z,14.00
2023-05-21T09:21:14.849Z,14.10
2023-05-21T09:22:14.825Z,14.10
2023-05-21T09:23:14.802Z,12.80
2023-05-21T09:24:14.781Z,13.80
2023-05-21T09:25:14.760Z,12.90
2023-05-21T09:26:14.738Z,12.70
2023-05-21T09:27:14.708Z,12.80
2023-05-21T09:28:14.692Z,13.00
2023-05-21T09:29:14.672Z,13.00
2023-05-21T09:30:14.656Z,12.90
2023-05-21T09:31:14.672Z,13.20
2023-05-21T09:32:14.597Z,13.20
2023-05-21T09:33:14.609Z,11.50
2023-05-21T09:34:14.551Z,12.10
2023-05-21T09:35:14.759Z,12.90
2023-05-21T09:36:14.520Z,12.30
2023-05-21T09:37:26.571Z,12.20
2023-05-21T09:38:14.460Z,12.60
2023-05-21T09:39:14.434Z,12.10
2023-05-21T09:40:14.413Z,11.60
2023-05-21T09:41:14.983Z,12.50
2023-05-21T09:42:14.367Z,12.80
2023-05-21T09:43:14.344Z,12.10
2023-05-21T09:44:14.326Z,12.10
2023-05-21T09:45:14.312Z,12.30
2023-05-21T09:46:14.314Z,11.50
2023-05-21T09:47:14.251Z,12.80
2023-05-21T09:48:14.233Z,13.00
2023-05-21T09:49:14.210Z,12.40
2023-05-21T09:50:14.206Z,13.20
2023-05-21T09:51:14.182Z,12.70
2023-05-21T09:52:14.146Z,12.00
2023-05-21T09:53:14.115Z,12.30
2023-05-21T09:54:14.096Z,12.40
2023-05-21T09:55:14.073Z,12.70
2023-05-21T09:56:14.051Z,12.70
2023-05-21T09:57:14.027Z,12.20
2023-05-21T09:58:14.004Z,12.60
2023-05-21T09:59:13.983Z,12.60
2023-05-21T10:00:13.960Z,12.10
2023-05-21T10:01:13.950Z,12.30
2023-05-21T10:02:14.007Z,12.80
2023-05-21T10:03:13.933Z,12.70
2023-05-21T10:04:13.887Z,12.60
2023-05-21T10:05:13.848Z,12.30
2023-05-21T10:06:13.822Z,12.80
2023-05-21T10:07:13.821Z,12.30
2023-05-21T10:08:13.789Z,12.30
2023-05-21T10:09:13.759Z,12.30
2023-05-21T10:10:13.737Z,12.20
2023-05-21T10:11:13.710Z,12.10
2023-05-21T10:12:13.692Z,12.30
2023-05-21T10:13:13.671Z,12.10
2023-05-21T10:14:13.647Z,12.90
2023-05-21T10:15:13.631Z,12.50
2023-05-21T10:16:13.627Z,12.20
2023-05-21T10:17:13.579Z,12.50
2023-05-21T10:18:13.587Z,11.90
2023-05-21T10:19:13.559Z,12.20
2023-05-21T10:20:13.528Z,11.80
2023-05-21T10:21:13.490Z,12.60
2023-05-21T10:22:13.471Z,12.30
2023-05-21T10:23:13.473Z,12.10
2023-05-21T10:24:13.424Z,11.60
2023-05-21T10:25:13.408Z,11.50
2023-05-21T10:26:13.377Z,11.20
2023-05-21T10:27:13.353Z,11.30
2023-05-21T10:28:13.333Z,11.90
2023-05-21T10:29:13.311Z,11.80
2023-05-21T10:30:13.285Z,11.40
2023-05-21T10:31:13.263Z,12.00
2023-05-21T10:32:13.299Z,11.90
2023-05-21T10:33:13.288Z,11.60
2023-05-21T10:34:13.201Z,12.00
2023-05-21T10:35:13.176Z,11.70
2023-05-21T10:36:13.156Z,11.50
2023-05-21T10:37:13.138Z,11.80
2023-05-21T10:38:13.111Z,11.10
2023-05-21T10:39:13.123Z,11.40
2023-05-21T10:40:13.069Z,11.20
2023-05-21T10:41:13.047Z,11.20
2023-05-21T10:42:13.032Z,11.10
2023-05-21T10:43:12.999Z,10.60
2023-05-21T10:44:12.980Z,10.10
2023-05-21T10:45:12.968Z,10.70
2023-05-21T10:46:13.029Z,10.50
2023-05-21T10:47:12.923Z,11.20
2023-05-21T10:48:12.900Z,10.20
2023-05-21T10:49:12.880Z,9.90
2023-05-21T10:50:12.864Z,10.10
2023-05-21T10:51:12.826Z,11.00
2023-05-21T10:52:12.811Z,11.10
2023-05-21T10:53:12.787Z,10.90
2023-05-21T10:54:12.781Z,10.90
2023-05-21T10:55:12.762Z,9.50
2023-05-21T10:56:12.718Z,9.40
2023-05-21T10:57:12.714Z,8.80
2023-05-21T10:58:12.678Z,9.60
2023-05-21T10:59:12.657Z,8.90
2023-05-21T11:00:12.640Z,7.90
2023-05-21T11:01:12.624Z,8.30
2023-05-21T11:02:12.661Z,7.70
2023-05-21T11:03:12.681Z,9.10
2023-05-21T11:04:12.551Z,8.70
2023-05-21T11:05:12.530Z,8.10
2023-05-21T11:06:12.508Z,8.50
2023-05-21T11:07:12.491Z,8.40
2023-05-21T11:08:12.472Z,8.10
2023-05-21T11:09:12.445Z,8.20
2023-05-21T11:10:12.435Z,8.10
2023-05-21T11:11:12.421Z,8.10
2023-05-21T11:12:12.413Z,7.70
2023-05-21T11:13:12.361Z,8.60
2023-05-21T11:14:12.343Z,9.30
2023-05-21T11:15:12.324Z,9.40
2023-05-21T11:16:12.295Z,8.60
2023-05-21T11:17:12.312Z,9.20
2023-05-21T11:18:12.340Z,8.40
2023-05-21T11:19:12.260Z,8.10
2023-05-21T11:20:12.214Z,7.50
2023-05-21T11:21:12.192Z,7.20
2023-05-21T11:22:12.177Z,8.10
2023-05-21T11:23:12.148Z,7.70
2023-05-21T11:24:12.150Z,7.00
2023-05-21T11:25:12.109Z,7.30
2023-05-21T11:26:12.112Z,8.10
2023-05-21T11:27:12.090Z,8.50
2023-05-21T11:28:12.048Z,8.90
2023-05-21T11:29:12.030Z,8.60
2023-05-21T11:30:12.014Z,8.50
2023-05-21T11:31:12.016Z,8.70
2023-05-21T11:32:11.962Z,8.60
2023-05-21T11:33:11.992Z,8.20
2023-05-21T11:34:11.929Z,7.80
2023-05-21T11:35:11.903Z,7.60
2023-05-21T11:36:11.893Z,7.90
2023-05-21T11:37:11.860Z,8.10
2023-05-21T11:38:11.840Z,8.00
2023-05-21T11:39:11.843Z,7.40
2023-05-21T11:40:11.796Z,6.30
2023-05-21T11:41:11.780Z,6.60
2023-05-21T11:42:11.758Z,6.10
2023-05-21T11:43:11.756Z,6.60
2023-05-21T11:44:11.718Z,7.20
2023-05-21T11:45:11.695Z,7.20
2023-05-21T11:46:11.693Z,7.10
2023-05-21T11:47:11.654Z,6.90
2023-05-21T11:48:11.688Z,7.40
2023-05-21T11:49:11.614Z,7.30
2023-05-21T11:50:11.596Z,7.50
2023-05-21T11:51:11.573Z,6.90
2023-05-21T11:52:11.558Z,7.30
2023-05-21T11:53:11.530Z,7.40
2023-05-21T11:54:11.522Z,7.40
2023-05-21T11:55:11.527Z,6.90
2023-05-21T11:56:11.486Z,7.10
2023-05-21T11:57:11.458Z,6.70
2023-05-21T11:58:11.433Z,6.30
2023-05-21T11:59:11.434Z,5.90
2023-05-21T12:00:11.394Z,6.40
2023-05-21T12:01:11.372Z,6.60
2023-05-21T12:02:11.357Z,6.80
2023-05-21T12:03:11.411Z,6.50
2023-05-21T12:04:11.339Z,6.00
2023-05-21T12:05:13.225Z,6.70
2023-05-21T12:06:11.327Z,6.30
2023-05-21T12:07:11.253Z,6.00
2023-05-21T12:08:11.235Z,5.70
2023-05-21T12:09:11.231Z,5.60
2023-05-21T12:10:11.195Z,5.40
2023-05-21T12:11:11.174Z,5.50
2023-05-21T12:12:11.151Z,5.40
2023-05-21T12:13:11.134Z,5.60
2023-05-21T12:14:11.138Z,5.40
2023-05-21T12:15:11.121Z,5.50
2023-05-21T12:16:11.096Z,5.30
2023-05-21T12:17:11.052Z,5.20
2023-05-21T12:18:11.042Z,5.10
2023-05-21T12:19:11.055Z,5.30
2023-05-21T12:20:10.998Z,5.80
2023-05-21T12:21:12.503Z,5.30
2023-05-21T12:22:10.959Z,5.70
2023-05-21T12:23:10.932Z,5.90
2023-05-21T12:24:10.913Z,6.30
2023-05-21T12:25:10.909Z,5.50
2023-05-21T12:26:10.872Z,5.90
2023-05-21T12:27:10.860Z,5.70
2023-05-21T12:28:10.834Z,5.40
2023-05-21T12:29:10.816Z,5.00
2023-05-21T12:30:10.812Z,5.50
2023-05-21T12:31:10.799Z,5.30
2023-05-21T12:32:10.934Z,5.70
2023-05-21T12:33:10.768Z,5.30
2023-05-21T12:34:10.716Z,5.60
2023-05-21T12:35:10.724Z,6.10
2023-05-21T12:36:10.679Z,5.90
2023-05-21T12:37:10.660Z,6.20
2023-05-21T12:38:10.641Z,6.20
2023-05-21T12:39:11.407Z,6.60
2023-05-21T12:40:10.612Z,5.80
2023-05-21T12:41:10.585Z,5.90
2023-05-21T12:42:10.565Z,5.70
2023-05-21T12:43:10.553Z,6.40
2023-05-21T12:44:10.528Z,6.40
2023-05-21T12:45:10.506Z,5.80
2023-05-21T12:46:10.538Z,5.90
2023-05-21T12:47:10.492Z,6.50
2023-05-21T12:48:10.498Z,6.00
2023-05-21T12:49:10.434Z,6.40
2023-05-21T12:50:10.550Z,6.20
2023-05-21T12:51:10.397Z,5.80
2023-05-21T12:52:10.389Z,6.00
2023-05-21T12:53:10.363Z,6.00
2023-05-21T12:54:10.339Z,6.10
2023-05-21T12:55:10.372Z,5.60
2023-05-21T12:56:10.320Z,5.60